createdAt,value
2018-06-12T00:00:06.160Z,99133.00
2018-06-12T00:02:37.115Z,99123.00
2018-06-12T00:05:07.836Z,99114.00
2018-06-12T00:07:38.791Z,99115.00
2018-06-12T00:10:09.527Z,99117.00
2018-06-12T00:12:39.754Z,99116.00
2018-06-12T00:15:10.547Z,99113.00
2018-06-12T00:17:41.314Z,99108.00
2018-06-12T00:20:12.239Z,99106.00
2018-06-12T00:22:43.590Z,99107.00
2018-06-12T00:25:14.232Z,99105.00
2018-06-12T00:27:45.022Z,99104.00
2018-06-12T00:30:15.631Z,99110.00
2018-06-12T00:32:46.600Z,99113.00
2018-06-12T00:35:17.151Z,99112.00
2018-06-12T00:37:47.951Z,99106.00
2018-06-12T00:40:18.627Z,99096.00
2018-06-12T00:42:49.280Z,99093.00
2018-06-12T00:45:19.793Z,99095.00
2018-06-12T00:47:50.861Z,99100.00
2018-06-12T00:50:22.779Z,99102.00
2018-06-12T00:52:53.527Z,99099.00
2018-06-12T00:55:24.149Z,99102.00
2018-06-12T00:57:54.528Z,99103.00
2018-06-12T01:00:25.838Z,99108.00
2018-06-12T01:02:58.080Z,99111.00
2018-06-12T01:05:29.646Z,99109.00
2018-06-12T01:08:00.578Z,99114.00
2018-06-12T01:10:31.486Z,99115.00
2018-06-12T01:13:02.255Z,99117.00
2018-06-12T01:15:33.300Z,99115.00
2018-06-12T01:18:04.339Z,99110.00
2018-06-12T01:20:35.595Z,99111.00
2018-06-12T01:23:06.539Z,99108.00
2018-06-12T01:25:37.376Z,99106.00
2018-06-12T01:28:08.857Z,99107.00
2018-06-12T01:30:39.953Z,99097.00
2018-06-12T01:33:10.561Z,99103.00
2018-06-12T01:35:41.323Z,99098.00
2018-06-12T01:38:12.420Z,99098.00
2018-06-12T01:40:43.977Z,99099.00
2018-06-12T01:43:14.768Z,99104.00
2018-06-12T01:45:45.016Z,99104.00
2018-06-12T01:48:15.897Z,99101.00
2018-06-12T01:50:48.103Z,99103.00
2018-06-12T01:53:19.537Z,99102.00
2018-06-12T01:55:50.384Z,99096.00
2018-06-12T01:58:21.653Z,99086.00
2018-06-12T02:00:52.496Z,99083.00
2018-06-12T02:03:23.239Z,99087.00
2018-06-12T02:05:54.539Z,99086.00
2018-06-12T02:08:25.718Z,99083.00
2018-06-12T02:10:56.628Z,99083.00
2018-06-12T02:13:27.211Z,99080.00
2018-06-12T02:15:58.030Z,99088.00
2018-06-12T02:18:28.271Z,99092.00
2018-06-12T02:20:59.976Z,99092.00
2018-06-12T02:23:30.647Z,99089.00
2018-06-12T02:26:01.329Z,99099.00
2018-06-12T02:28:31.939Z,99102.00
2018-06-12T02:31:03.025Z,99111.00
2018-06-12T02:33:33.805Z,99103.00
2018-06-12T02:36:03.945Z,99109.00
2018-06-12T02:38:35.785Z,99111.00
2018-06-12T02:41:06.585Z,99122.00
2018-06-12T02:43:37.528Z,99129.00
2018-06-12T02:46:08.310Z,99130.00
2018-06-12T02:48:39.469Z,99124.00
2018-06-12T02:51:09.949Z,99125.00
2018-06-12T02:53:41.021Z,99120.00
2018-06-12T02:56:12.349Z,99122.00
2018-06-12T02:58:43.215Z,99123.00
2018-06-12T03:01:14.294Z,99113.00
2018-06-12T03:03:44.856Z,99115.00
2018-06-12T03:06:15.703Z,99124.00
2018-06-12T03:08:46.863Z,99132.00
2018-06-12T03:11:17.826Z,99128.00
2018-06-12T03:13:48.604Z,99128.00
2018-06-12T03:16:19.537Z,99126.00
2018-06-12T03:18:49.929Z,99132.00
2018-06-12T03:21:20.457Z,99132.00
2018-06-12T03:23:52.032Z,99126.00
2018-06-12T03:26:23.114Z,99125.00
2018-06-12T03:28:53.921Z,99119.00
2018-06-12T03:31:24.749Z,99123.00
2018-06-12T03:33:55.481Z,99123.00
2018-06-12T03:36:26.003Z,99127.00
2018-06-12T03:38:56.809Z,99124.00
2018-06-12T03:41:27.468Z,99119.00
2018-06-12T03:43:57.665Z,99118.00
2018-06-12T03:46:28.434Z,99125.00
2018-06-12T03:48:59.385Z,99128.00
2018-06-12T03:51:30.090Z,99123.00
2018-06-12T03:54:00.825Z,99132.00
2018-06-12T03:56:30.846Z,99133.00
2018-06-12T03:59:02.588Z,99134.00
2018-06-12T04:01:34.540Z,99135.00
2018-06-12T04:04:04.558Z,99141.00
2018-06-12T04:06:38.235Z,99139.00
2018-06-12T04:09:10.448Z,99135.00
2018-06-12T04:11:41.325Z,99126.00
2018-06-12T04:14:12.260Z,99127.00
2018-06-12T04:16:43.363Z,99134.00
2018-06-12T04:19:14.167Z,99137.00
2018-06-12T04:21:44.706Z,99136.00
2018-06-12T04:24:15.388Z,99124.00
2018-06-12T04:26:46.248Z,99123.00
2018-06-12T04:29:16.822Z,99125.00
2018-06-12T04:31:47.494Z,99126.00
2018-06-12T04:34:18.131Z,99125.00
2018-06-12T04:36:49.117Z,99124.00
2018-06-12T04:39:19.705Z,99130.00
2018-06-12T04:41:50.371Z,99134.00
2018-06-12T04:44:20.885Z,99128.00
2018-06-12T04:46:52.106Z,99127.00
2018-06-12T04:49:22.706Z,99132.00
2018-06-12T04:51:52.968Z,99138.00
2018-06-12T04:54:23.790Z,99136.00
2018-06-12T04:56:54.353Z,99142.00
2018-06-12T04:59:25.181Z,99142.00
2018-06-12T05:01:59.620Z,99144.00
2018-06-12T05:04:30.140Z,99145.00
2018-06-12T05:07:00.792Z,99140.00
2018-06-12T05:09:31.557Z,99140.00
2018-06-12T05:12:02.371Z,99148.00
2018-06-12T05:14:33.427Z,99144.00
2018-06-12T05:17:04.664Z,99143.00
2018-06-12T05:19:35.840Z,99137.00
2018-06-12T05:22:06.880Z,99133.00
2018-06-12T05:24:37.629Z,99130.00
2018-06-12T05:27:08.330Z,99127.00
2018-06-12T05:29:39.166Z,99124.00
2018-06-12T05:32:10.056Z,99132.00
2018-06-12T05:34:41.033Z,99130.00
2018-06-12T05:37:12.210Z,99137.00
2018-06-12T05:39:43.207Z,99141.00
2018-06-12T05:42:14.008Z,99139.00
2018-06-12T05:44:45.067Z,99144.00
2018-06-12T05:47:15.852Z,99139.00
2018-06-12T05:49:46.876Z,99137.00
2018-06-12T05:52:18.594Z,99137.00
2018-06-12T05:54:49.180Z,99138.00
2018-06-12T05:57:20.496Z,99136.00
2018-06-12T05:59:51.409Z,99135.00
2018-06-12T06:02:22.546Z,99127.00
2018-06-12T06:04:54.231Z,99123.00
2018-06-12T06:07:25.355Z,99115.00
2018-06-12T06:09:56.645Z,99120.00
2018-06-12T06:12:27.034Z,99123.00
2018-06-12T06:14:57.480Z,99120.00
2018-06-12T06:17:28.755Z,99115.00
2018-06-12T06:19:59.832Z,99115.00
2018-06-12T06:22:30.876Z,99114.00
2018-06-12T06:25:02.108Z,99109.00
2018-06-12T06:27:32.944Z,99109.00
2018-06-12T06:30:03.771Z,99107.00
2018-06-12T06:32:34.661Z,99110.00
2018-06-12T06:35:05.710Z,99109.00
2018-06-12T06:37:37.096Z,99103.00
2018-06-12T06:40:07.827Z,99100.00
2018-06-12T06:42:38.306Z,99096.00
2018-06-12T06:45:09.176Z,99096.00
2018-06-12T06:47:40.104Z,99096.00
2018-06-12T06:50:11.014Z,99098.00
2018-06-12T06:52:44.923Z,99095.00
2018-06-12T06:55:15.185Z,99094.00
2018-06-12T06:57:47.288Z,99100.00
2018-06-12T07:00:18.515Z,99093.00
2018-06-12T07:02:49.902Z,99092.00
2018-06-12T07:05:20.919Z,99090.00
2018-06-12T07:07:55.875Z,99086.00
2018-06-12T07:10:27.122Z,99083.00
2018-06-12T07:12:57.673Z,99080.00
2018-06-12T07:15:28.345Z,99076.00
2018-06-12T07:17:59.369Z,99072.00
2018-06-12T07:21:34.102Z,99072.00
2018-06-12T07:24:05.060Z,99073.00
2018-06-12T07:26:35.911Z,99063.00
2018-06-12T07:29:06.652Z,99047.00
2018-06-12T07:31:37.548Z,99052.00
2018-06-12T07:34:08.667Z,99053.00
2018-06-12T07:36:39.742Z,99049.00
2018-06-12T07:39:10.135Z,99048.00
2018-06-12T07:41:40.762Z,99044.00
2018-06-12T07:44:11.456Z,99040.00
2018-06-12T07:46:41.907Z,99037.00
2018-06-12T07:49:13.332Z,99042.00
2018-06-12T07:51:43.820Z,99034.00
2018-06-12T07:54:14.378Z,99038.00
2018-06-12T07:56:45.468Z,99027.00
2018-06-12T07:59:16.337Z,99029.00
2018-06-12T08:01:47.357Z,99027.00
2018-06-12T08:04:18.894Z,99026.00
2018-06-12T08:06:50.037Z,99027.00
2018-06-12T08:09:20.576Z,99025.00
2018-06-12T08:11:51.952Z,99024.00
2018-06-12T08:14:22.522Z,99024.00
2018-06-12T08:16:53.420Z,99020.00
2018-06-12T08:19:24.120Z,99020.00
2018-06-12T08:21:54.323Z,99020.00
2018-06-12T08:24:24.865Z,99016.00
2018-06-12T08:26:55.727Z,99014.00
2018-06-12T08:29:26.639Z,99010.00
2018-06-12T08:31:57.192Z,99008.00
2018-06-12T08:34:27.349Z,99000.00
2018-06-12T08:36:57.814Z,99005.00
2018-06-12T08:39:28.763Z,99003.00
2018-06-12T08:41:59.831Z,99001.00
2018-06-12T08:44:30.936Z,99008.00
2018-06-12T08:47:03.058Z,99003.00
2018-06-12T08:49:33.865Z,99002.00
2018-06-12T08:52:04.799Z,98998.00
2018-06-12T08:54:35.519Z,98991.00
2018-06-12T08:57:06.593Z,98984.00
2018-06-12T08:59:37.788Z,98986.00
2018-06-12T09:02:08.398Z,98978.00
2018-06-12T09:04:39.178Z,98982.00
2018-06-12T09:07:10.311Z,98981.00
2018-06-12T09:09:41.618Z,98975.00
2018-06-12T09:12:12.581Z,98973.00
2018-06-12T09:14:43.306Z,98968.00
2018-06-12T09:17:14.096Z,98964.00
2018-06-12T09:19:45.284Z,98962.00
2018-06-12T09:22:16.181Z,98955.00
2018-06-12T09:24:47.364Z,98949.00
2018-06-12T09:27:18.168Z,98953.00
2018-06-12T09:29:49.895Z,98946.00
2018-06-12T09:32:21.634Z,98945.00
2018-06-12T09:34:52.341Z,98936.00
2018-06-12T09:37:23.226Z,98939.00
2018-06-12T09:39:53.775Z,98941.00
2018-06-12T09:42:25.054Z,98941.00
2018-06-12T09:44:56.208Z,98941.00
2018-06-12T09:47:26.821Z,98942.00
2018-06-12T09:49:58.348Z,98935.00
2018-06-12T09:52:29.099Z,98935.00
2018-06-12T09:54:59.876Z,98936.00
2018-06-12T09:57:30.468Z,98925.00
2018-06-12T10:00:01.481Z,98926.00
2018-06-12T10:02:32.343Z,98922.00
2018-06-12T10:05:03.003Z,98920.00
2018-06-12T10:07:33.774Z,98923.00
2018-06-12T10:10:04.738Z,98919.00
2018-06-12T10:12:34.801Z,98917.00
2018-06-12T10:15:06.033Z,98910.00
2018-06-12T10:17:36.996Z,98905.00
2018-06-12T10:20:07.540Z,98901.00
2018-06-12T10:22:38.666Z,98903.00
2018-06-12T10:25:09.499Z,98891.00
2018-06-12T10:27:40.427Z,98888.00
2018-06-12T10:30:11.382Z,98889.00
2018-06-12T10:32:42.563Z,98883.00
2018-06-12T10:35:14.008Z,98881.00
2018-06-12T10:37:45.098Z,98880.00
2018-06-12T10:40:16.115Z,98874.00
2018-06-12T10:42:46.824Z,98870.00
2018-06-12T10:45:17.547Z,98872.00
2018-06-12T10:47:49.043Z,98866.00
2018-06-12T10:50:20.600Z,98871.00
2018-06-12T10:52:51.236Z,98860.00
2018-06-12T10:55:22.133Z,98857.00
2018-06-12T10:57:52.913Z,98854.00
2018-06-12T11:00:23.811Z,98855.00
2018-06-12T11:02:54.676Z,98849.00
2018-06-12T11:05:25.362Z,98853.00
2018-06-12T11:07:56.161Z,98850.00
2018-06-12T11:10:27.134Z,98848.00
2018-06-12T11:12:57.941Z,98853.00
2018-06-12T11:15:29.415Z,98838.00
2018-06-12T11:18:01.163Z,98833.00
2018-06-12T11:20:32.081Z,98837.00
2018-06-12T11:23:03.226Z,98832.00
2018-06-12T11:25:33.735Z,98829.00
2018-06-12T11:28:03.931Z,98822.00
2018-06-12T11:30:35.050Z,98823.00
2018-06-12T11:33:06.453Z,98819.00
2018-06-12T11:35:37.457Z,98820.00
2018-06-12T11:38:07.920Z,98814.00
2018-06-12T11:40:38.671Z,98814.00
2018-06-12T11:43:09.191Z,98810.00
2018-06-12T11:45:39.853Z,98813.00
2018-06-12T11:48:10.919Z,98805.00
2018-06-12T11:50:41.951Z,98805.00
2018-06-12T11:53:12.697Z,98809.00
2018-06-12T11:55:43.891Z,98795.00
2018-06-12T11:58:14.739Z,98788.00
2018-06-12T12:00:45.612Z,98786.00
2018-06-12T12:03:17.284Z,98784.00
2018-06-12T12:05:48.361Z,98786.00
2018-06-12T12:08:19.455Z,98772.00
2018-06-12T12:10:50.815Z,98762.00
2018-06-12T12:13:21.062Z,98760.00
2018-06-12T12:15:51.079Z,98755.00
2018-06-12T12:18:22.666Z,98758.00
2018-06-12T12:20:54.615Z,98747.00
2018-06-12T12:23:26.734Z,98757.00
2018-06-12T12:25:57.903Z,98750.00
2018-06-12T12:28:29.499Z,98754.00
2018-06-12T12:31:01.019Z,98747.00
2018-06-12T12:33:32.133Z,98747.00
2018-06-12T12:36:03.457Z,98742.00
2018-06-12T12:38:34.274Z,98741.00
2018-06-12T12:41:04.962Z,98745.00
2018-06-12T12:43:36.610Z,98735.00
2018-06-12T12:46:07.873Z,98734.00
2018-06-12T12:48:38.669Z,98737.00
2018-06-12T12:51:10.142Z,98734.00
2018-06-12T12:53:41.076Z,98732.00
2018-06-12T12:56:12.164Z,98723.00
2018-06-12T12:58:43.092Z,98718.00
2018-06-12T13:01:13.798Z,98717.00
2018-06-12T13:03:44.692Z,98714.00
2018-06-12T13:06:15.347Z,98710.00
2018-06-12T13:08:46.068Z,98707.00
2018-06-12T13:11:17.929Z,98716.00
2018-06-12T13:13:48.611Z,98701.00
2018-06-12T13:16:19.500Z,98701.00
2018-06-12T13:18:50.178Z,98701.00
2018-06-12T13:21:21.024Z,98705.00
2018-06-12T13:23:51.687Z,98699.00
2018-06-12T13:26:22.581Z,98694.00
2018-06-12T13:28:53.894Z,98687.00
2018-06-12T13:31:24.511Z,98692.00
2018-06-12T13:33:55.975Z,98692.00
2018-06-12T13:36:27.075Z,98685.00
2018-06-12T13:38:57.831Z,98682.00
2018-06-12T13:41:29.012Z,98682.00
2018-06-12T13:44:00.348Z,98681.00
2018-06-12T13:46:31.748Z,98675.00
2018-06-12T13:49:02.455Z,98670.00
2018-06-12T13:51:34.665Z,98666.00
2018-06-12T13:54:05.338Z,98666.00
2018-06-12T13:56:36.098Z,98670.00
2018-06-12T13:59:06.872Z,98669.00
2018-06-12T14:01:37.727Z,98666.00
2018-06-12T14:04:08.572Z,98667.00
2018-06-12T14:06:39.277Z,98669.00
2018-06-12T14:09:10.019Z,98670.00
2018-06-12T14:11:41.004Z,98667.00
2018-06-12T14:14:11.728Z,98664.00
2018-06-12T14:16:42.659Z,98661.00
2018-06-12T14:19:14.215Z,98658.00
2018-06-12T14:21:46.168Z,98656.00
2018-06-12T14:24:16.856Z,98653.00
2018-06-12T14:26:47.592Z,98654.00
2018-06-12T14:29:18.273Z,98654.00
2018-06-12T14:31:49.244Z,98658.00
2018-06-12T14:34:20.068Z,98662.00
2018-06-12T14:36:50.775Z,98653.00
2018-06-12T14:39:21.683Z,98651.00
2018-06-12T14:41:52.758Z,98647.00
2018-06-12T14:44:23.638Z,98638.00
2018-06-12T14:46:54.457Z,98644.00
2018-06-12T14:49:25.609Z,98642.00
2018-06-12T14:51:57.347Z,98633.00
2018-06-12T14:54:27.935Z,98631.00
2018-06-12T14:56:58.944Z,98631.00
2018-06-12T14:59:30.770Z,98630.00
2018-06-12T15:02:01.376Z,98625.00
2018-06-12T15:04:32.048Z,98623.00
2018-06-12T15:07:03.183Z,98621.00
2018-06-12T15:09:34.026Z,98614.00
2018-06-12T15:12:05.132Z,98609.00
2018-06-12T15:14:36.134Z,98614.00
2018-06-12T15:17:07.356Z,98613.00
2018-06-12T15:19:38.415Z,98611.00
2018-06-12T15:22:09.542Z,98602.00
2018-06-12T15:24:40.314Z,98605.00
2018-06-12T15:27:10.541Z,98602.00
2018-06-12T15:29:40.645Z,98606.00
2018-06-12T15:32:11.558Z,98605.00
2018-06-12T15:34:42.847Z,98603.00
2018-06-12T15:37:13.624Z,98597.00
2018-06-12T15:39:44.211Z,98596.00
2018-06-12T15:42:14.986Z,98596.00
2018-06-12T15:44:45.750Z,98588.00
2018-06-12T15:47:16.461Z,98585.00
2018-06-12T15:49:48.020Z,98582.00
2018-06-12T15:52:19.542Z,98585.00
2018-06-12T15:54:50.376Z,98580.00
2018-06-12T15:57:22.244Z,98582.00
2018-06-12T15:59:52.920Z,98579.00
2018-06-12T16:02:23.663Z,98585.00
2018-06-12T16:04:54.606Z,98580.00
2018-06-12T16:07:25.482Z,98582.00
2018-06-12T16:09:56.381Z,98585.00
2018-06-12T16:12:27.383Z,98582.00
2018-06-12T16:14:58.225Z,98581.00
2018-06-12T16:17:28.287Z,98581.00
2018-06-12T16:19:59.226Z,98582.00
2018-06-12T16:22:30.234Z,98584.00
2018-06-12T16:25:00.978Z,98589.00
2018-06-12T16:27:32.501Z,98581.00
2018-06-12T16:30:03.227Z,98581.00
2018-06-12T16:32:34.371Z,98583.00
2018-06-12T16:35:05.473Z,98582.00
2018-06-12T16:37:36.370Z,98577.00
2018-06-12T16:40:07.958Z,98572.00
2018-06-12T16:42:39.410Z,98572.00
2018-06-12T16:45:10.328Z,98580.00
2018-06-12T16:47:40.943Z,98576.00
2018-06-12T16:50:11.915Z,98582.00
2018-06-12T16:52:42.730Z,98588.00
2018-06-12T16:55:13.330Z,98590.00
2018-06-12T16:57:44.184Z,98596.00
2018-06-12T17:00:15.362Z,98591.00
2018-06-12T17:02:46.539Z,98584.00
2018-06-12T17:05:17.063Z,98589.00
2018-06-12T17:07:48.072Z,98599.00
2018-06-12T17:10:18.940Z,98594.00
2018-06-12T17:12:49.854Z,98600.00
2018-06-12T17:15:20.831Z,98598.00
2018-06-12T17:17:51.757Z,98605.00
2018-06-12T17:20:22.517Z,98604.00
2018-06-12T17:22:53.403Z,98605.00
2018-06-12T17:25:24.135Z,98603.00
2018-06-12T17:27:55.412Z,98610.00
2018-06-12T17:30:27.284Z,98618.00
2018-06-12T17:32:57.918Z,98614.00
2018-06-12T17:35:29.284Z,98620.00
2018-06-12T17:38:00.658Z,98618.00
2018-06-12T17:40:32.509Z,98624.00
2018-06-12T17:43:03.894Z,98623.00
2018-06-12T17:45:34.851Z,98618.00
2018-06-12T17:48:07.331Z,98617.00
2018-06-12T17:50:38.665Z,98607.00
2018-06-12T17:53:09.767Z,98616.00
2018-06-12T17:55:40.801Z,98610.00
2018-06-12T17:58:11.395Z,98611.00
2018-06-12T18:00:42.153Z,98611.00
2018-06-12T18:03:12.800Z,98616.00
2018-06-12T18:05:43.703Z,98614.00
2018-06-12T18:08:14.717Z,98614.00
2018-06-12T18:10:45.621Z,98617.00
2018-06-12T18:13:16.627Z,98624.00
2018-06-12T18:15:46.913Z,98626.00
2018-06-12T18:18:17.449Z,98628.00
2018-06-12T18:20:48.720Z,98634.00
2018-06-12T18:23:19.644Z,98632.00
2018-06-12T18:25:50.712Z,98632.00
2018-06-12T18:28:22.195Z,98637.00
2018-06-12T18:30:53.347Z,98641.00
2018-06-12T18:33:24.076Z,98639.00
2018-06-12T18:35:54.936Z,98645.00
2018-06-12T18:38:25.993Z,98643.00
2018-06-12T18:40:56.729Z,98644.00
2018-06-12T18:43:27.880Z,98648.00
2018-06-12T18:45:58.862Z,98655.00
2018-06-12T18:48:30.084Z,98657.00
2018-06-12T18:51:00.923Z,98658.00
2018-06-12T18:53:32.948Z,98656.00
2018-06-12T18:56:03.954Z,98658.00
2018-06-12T18:58:34.570Z,98658.00
2018-06-12T19:01:06.377Z,98653.00
2018-06-12T19:03:37.193Z,98650.00
2018-06-12T19:06:08.385Z,98653.00
2018-06-12T19:08:39.897Z,98654.00
2018-06-12T19:11:11.055Z,98660.00
2018-06-12T19:13:42.056Z,98662.00
2018-06-12T19:16:12.978Z,98666.00
2018-06-12T19:18:42.982Z,98671.00
2018-06-12T19:21:13.066Z,98671.00
2018-06-12T19:23:44.039Z,98670.00
2018-06-12T19:26:14.287Z,98672.00
2018-06-12T19:28:45.147Z,98671.00
2018-06-12T19:31:15.977Z,98670.00
2018-06-12T19:33:47.214Z,98670.00
2018-06-12T19:36:18.114Z,98671.00
2018-06-12T19:38:49.002Z,98675.00
2018-06-12T19:41:19.504Z,98678.00
2018-06-12T19:43:49.381Z,98680.00
2018-06-12T19:46:20.463Z,98680.00
2018-06-12T19:48:50.821Z,98684.00
2018-06-12T19:51:21.130Z,98685.00
2018-06-12T19:53:52.117Z,98686.00
2018-06-12T19:56:23.098Z,98687.00
2018-06-12T19:58:54.480Z,98687.00
2018-06-12T20:01:25.373Z,98687.00
2018-06-12T20:03:56.456Z,98689.00
2018-06-12T20:06:27.460Z,98691.00
2018-06-12T20:08:59.590Z,98692.00
2018-06-12T20:11:30.345Z,98695.00
2018-06-12T20:14:01.612Z,98697.00
2018-06-12T20:16:31.612Z,98697.00
2018-06-12T20:19:02.649Z,98701.00
2018-06-12T20:21:33.430Z,98700.00
2018-06-12T20:24:04.137Z,98696.00
2018-06-12T20:26:35.088Z,98698.00
2018-06-12T20:29:06.442Z,98701.00
2018-06-12T20:31:37.273Z,98693.00
2018-06-12T20:34:08.690Z,98696.00
2018-06-12T20:36:40.430Z,98691.00
2018-06-12T20:39:12.135Z,98692.00
2018-06-12T20:41:42.780Z,98691.00
2018-06-12T20:44:14.415Z,98695.00
2018-06-12T20:46:45.785Z,98691.00
2018-06-12T20:49:17.506Z,98684.00
2018-06-12T20:51:48.030Z,98690.00
2018-06-12T20:54:20.178Z,98691.00
2018-06-12T20:56:52.048Z,98683.00
2018-06-12T20:59:24.220Z,98687.00
2018-06-12T21:01:55.568Z,98689.00
2018-06-12T21:04:26.300Z,98690.00
2018-06-12T21:06:56.824Z,98688.00
2018-06-12T21:09:28.459Z,98686.00
2018-06-12T21:11:59.609Z,98690.00
2018-06-12T21:14:30.315Z,98688.00
2018-06-12T21:17:01.260Z,98688.00
2018-06-12T21:19:32.070Z,98689.00
2018-06-12T21:22:03.160Z,98692.00
2018-06-12T21:24:34.383Z,98691.00
2018-06-12T21:27:05.966Z,98691.00
2018-06-12T21:29:36.301Z,98689.00
2018-06-12T21:32:06.996Z,98687.00
2018-06-12T21:34:37.779Z,98685.00
2018-06-12T21:37:08.732Z,98685.00
2018-06-12T21:39:40.131Z,98685.00
2018-06-12T21:42:11.107Z,98690.00
2018-06-12T21:44:41.959Z,98687.00
2018-06-12T21:47:12.944Z,98691.00
2018-06-12T21:49:43.334Z,98691.00
2018-06-12T21:52:14.345Z,98685.00
2018-06-12T21:54:45.411Z,98679.00
2018-06-12T21:57:16.059Z,98680.00
2018-06-12T21:59:47.045Z,98687.00
2018-06-12T22:02:17.781Z,98685.00
2018-06-12T22:04:48.907Z,98692.00
2018-06-12T22:07:19.501Z,98698.00
2018-06-12T22:09:49.861Z,98702.00
2018-06-12T22:12:20.977Z,98708.00
2018-06-12T22:14:51.961Z,98704.00
2018-06-12T22:17:22.723Z,98711.00
2018-06-12T22:19:53.531Z,98712.00
2018-06-12T22:22:24.316Z,98711.00
2018-06-12T22:24:55.099Z,98713.00
2018-06-12T22:27:26.121Z,98706.00
2018-06-12T22:29:56.832Z,98709.00
2018-06-12T22:32:28.008Z,98710.00
2018-06-12T22:34:59.036Z,98708.00
2018-06-12T22:37:29.778Z,98712.00
2018-06-12T22:40:00.461Z,98712.00
2018-06-12T22:42:31.006Z,98719.00
2018-06-12T22:45:01.803Z,98714.00
2018-06-12T22:47:32.743Z,98711.00
2018-06-12T22:50:03.243Z,98715.00
2018-06-12T22:52:33.985Z,98712.00
2018-06-12T22:55:04.816Z,98714.00
2018-06-12T22:57:35.516Z,98720.00
2018-06-12T23:00:06.167Z,98724.00
2018-06-12T23:02:36.889Z,98718.00
2018-06-12T23:05:07.869Z,98718.00
2018-06-12T23:07:38.817Z,98717.00
2018-06-12T23:10:10.547Z,98722.00
2018-06-12T23:12:40.618Z,98727.00
2018-06-12T23:15:11.446Z,98724.00
2018-06-12T23:17:42.553Z,98723.00
2018-06-12T23:20:23.979Z,98721.00
2018-06-12T23:22:54.963Z,98710.00
2018-06-12T23:25:25.691Z,98709.00
2018-06-12T23:27:56.597Z,98710.00
2018-06-12T23:30:27.426Z,98715.00
2018-06-12T23:32:58.123Z,98718.00
2018-06-12T23:35:28.652Z,98715.00
2018-06-12T23:37:59.269Z,98711.00
2018-06-12T23:40:30.072Z,98717.00
2018-06-12T23:43:01.104Z,98720.00
2018-06-12T23:45:32.155Z,98718.00
2018-06-12T23:48:03.281Z,98726.00
2018-06-12T23:50:34.574Z,98731.00
2018-06-12T23:53:05.380Z,98731.00
2018-06-12T23:55:36.174Z,98727.00
2018-06-12T23:58:07.353Z,98725.00
